Time;durP1;ratioP1;P1;durP2;ratioP2;P2;SDS_P1;SDS_P2;PMS_P1;PMS_P2;Temp;Humidity;BMP_temperature;BMP_pressure;BME280_temperature;BME280_humidity;BME280_pressure;Samples;Min_cycle;Max_cycle;Signal;HPM_P1;HPM_P2
2022/07/31 00:01:33;;;;;;;1.60;1.50;;;14.80;99.90;;;;;;7351306;19;20344;-77
2022/07/31 00:03:59;;;;;;;1.40;1.30;;;14.80;99.90;;;;;;7350643;19;20389;-76
2022/07/31 00:06:24;;;;;;;1.50;1.40;;;14.80;99.90;;;;;;7351077;19;20340;-77
2022/07/31 00:08:50;;;;;;;2.30;1.60;;;14.80;99.90;;;;;;7359417;19;20353;-78
2022/07/31 00:11:16;;;;;;;1.60;1.50;;;14.80;99.90;;;;;;7359846;19;21398;-78
2022/07/31 00:13:41;;;;;;;1.50;1.40;;;14.70;99.90;;;;;;7356728;19;20368;-76
2022/07/31 00:16:07;;;;;;;1.65;1.50;;;14.60;99.90;;;;;;7358928;19;20341;-77
2022/07/31 00:18:33;;;;;;;1.43;1.33;;;14.60;99.90;;;;;;7361755;19;21384;-78
2022/07/31 00:21:00;;;;;;;1.58;1.48;;;14.60;99.90;;;;;;7356717;19;20440;-76
2022/07/31 00:23:27;;;;;;;1.50;1.40;;;14.50;99.90;;;;;;7360677;19;20368;-75
2022/07/31 00:25:52;;;;;;;1.60;1.50;;;14.40;99.90;;;;;;7358100;19;20372;-78
2022/07/31 00:28:18;;;;;;;1.58;1.48;;;14.40;99.90;;;;;;7361422;19;20550;-78
2022/07/31 00:30:43;;;;;;;1.60;1.50;;;14.40;99.90;;;;;;7358743;19;20341;-76
2022/07/31 00:33:09;;;;;;;1.33;1.23;;;14.30;99.90;;;;;;7362981;19;20364;-75
2022/07/31 00:35:35;;;;;;;1.75;1.65;;;14.30;99.90;;;;;;7364454;19;20341;-75
2022/07/31 00:38:00;;;;;;;2.20;1.50;;;14.30;99.90;;;;;;7365862;19;20340;-72
2022/07/31 00:40:26;;;;;;;1.90;1.60;;;14.20;99.90;;;;;;7370151;19;20698;-75
2022/07/31 00:42:52;;;;;;;1.60;1.50;;;14.20;99.90;;;;;;7366746;19;20360;-73
2022/07/31 00:45:17;;;;;;;1.50;1.40;;;14.10;99.90;;;;;;7370622;19;20787;-75
2022/07/31 00:47:43;;;;;;;1.80;1.70;;;14.10;99.90;;;;;;7362568;19;20328;-75
2022/07/31 00:50:10;;;;;;;2.38;1.60;;;14.10;99.90;;;;;;7362719;19;20357;-73
2022/07/31 00:52:35;;;;;;;1.70;1.60;;;14.10;99.90;;;;;;7359424;19;20357;-72
2022/07/31 00:55:01;;;;;;;1.90;1.80;;;14.10;99.90;;;;;;7363576;19;20361;-76
2022/07/31 00:57:27;;;;;;;1.67;1.57;;;14.00;99.90;;;;;;7361539;19;20420;-73
2022/07/31 00:59:52;;;;;;;1.42;1.33;;;14.00;99.90;;;;;;7365468;19;20376;-74
2022/07/31 01:02:18;;;;;;;2.87;1.60;;;13.90;99.90;;;;;;7357679;19;21150;-75
2022/07/31 01:04:44;;;;;;;1.73;1.60;;;13.90;99.90;;;;;;7362890;19;20381;-72
2022/07/31 01:07:09;;;;;;;1.70;1.60;;;13.90;99.90;;;;;;7361300;19;20328;-75
2022/07/31 01:09:35;;;;;;;1.53;1.43;;;13.80;99.90;;;;;;7363237;19;20345;-75
2022/07/31 01:12:20;;;;;;;1.90;1.80;;;13.80;99.90;;;;;;7357576;19;20432;-76
2022/07/31 01:14:53;;;;;;;2.10;1.80;;;13.70;99.90;;;;;;7363005;19;20405;-73
2022/07/31 01:17:20;;;;;;;2.10;1.90;;;13.70;99.90;;;;;;7359029;19;21097;-74
2022/07/31 01:19:47;;;;;;;1.80;1.70;;;13.70;99.90;;;;;;7361622;19;20926;-76
2022/07/31 01:22:20;;;;;;;2.03;1.83;;;13.60;99.90;;;;;;7357423;19;20388;-73
2022/07/31 01:25:05;;;;;;;2.25;2.05;;;13.60;99.90;;;;;;7359871;19;20630;-76
2022/07/31 01:28:08;;;;;;;2.20;2.00;;;13.60;99.90;;;;;;7359025;19;20333;-76
2022/07/31 01:30:42;;;;;;;1.80;1.70;;;13.50;99.90;;;;;;7358524;19;20325;-75
2022/07/31 01:33:11;;;;;;;2.20;2.00;;;13.50;99.90;;;;;;7359646;19;20424;-74
2022/07/31 01:35:42;;;;;;;1.90;1.80;;;13.50;99.90;;;;;;7357324;19;20789;-73
2022/07/31 01:38:11;;;;;;;2.70;2.10;;;13.40;99.90;;;;;;7359905;19;20962;-74
2022/07/31 01:40:43;;;;;;;1.80;1.70;;;13.50;99.90;;;;;;7358751;19;20903;-76
2022/07/31 01:43:14;;;;;;;1.70;1.42;;;13.40;99.90;;;;;;7358944;19;20498;-74
2022/07/31 01:45:41;;;;;;;1.75;1.65;;;13.50;99.90;;;;;;7356838;19;20352;-75
2022/07/31 01:48:09;;;;;;;2.17;2.07;;;13.50;99.90;;;;;;7364422;19;20403;-76
2022/07/31 01:50:36;;;;;;;3.30;2.13;;;13.50;99.90;;;;;;7360322;19;20364;-74
2022/07/31 01:53:02;;;;;;;2.05;1.90;;;13.40;99.90;;;;;;7359626;19;20348;-73
2022/07/31 01:55:28;;;;;;;2.45;2.20;;;13.40;99.90;;;;;;7359704;19;20348;-75
2022/07/31 01:57:53;;;;;;;1.90;1.80;;;13.50;99.90;;;;;;7361554;19;21175;-74
2022/07/31 02:00:19;;;;;;;2.00;1.80;;;13.40;99.90;;;;;;7358484;19;20360;-78
2022/07/31 02:02:47;;;;;;;2.03;1.92;;;13.40;99.90;;;;;;7356435;19;20356;-75
2022/07/31 02:05:13;;;;;;;2.80;2.60;;;13.30;99.90;;;;;;7360170;19;20890;-79
2022/07/31 02:07:39;;;;;;;2.05;1.95;;;13.30;99.90;;;;;;7356535;19;20448;-76
2022/07/31 02:10:08;;;;;;;2.00;1.90;;;13.40;99.90;;;;;;7361531;19;20368;-74
2022/07/31 02:12:35;;;;;;;2.20;2.00;;;13.30;99.90;;;;;;7355536;19;20963;-78
2022/07/31 02:15:03;;;;;;;2.22;2.13;;;13.30;99.90;;;;;;7357384;19;20537;-75
2022/07/31 02:17:29;;;;;;;2.13;2.00;;;13.30;99.90;;;;;;7357730;19;20329;-78
2022/07/31 02:20:30;;;;;;;2.67;2.40;;;13.20;99.90;;;;;;7357457;19;20344;-77
2022/07/31 02:22:56;;;;;;;2.47;2.27;;;13.20;99.90;;;;;;7355280;19;20372;-76
2022/07/31 02:25:21;;;;;;;2.83;2.63;;;13.20;99.90;;;;;;7352328;19;20357;-78
2022/07/31 02:27:49;;;;;;;2.67;2.47;;;13.10;99.90;;;;;;7356047;19;20673;-76
2022/07/31 02:30:15;;;;;;;3.50;2.50;;;13.00;99.90;;;;;;7359222;19;20340;-78
2022/07/31 02:32:41;;;;;;;3.50;2.50;;;13.00;99.90;;;;;;7354639;19;20358;-76
2022/07/31 02:35:07;;;;;;;2.33;2.13;;;12.90;99.90;;;;;;7358836;19;20419;-78
2022/07/31 02:37:34;;;;;;;2.30;2.10;;;12.80;99.90;;;;;;7355458;19;20364;-75
2022/07/31 02:39:59;;;;;;;2.58;2.33;;;12.80;99.90;;;;;;7361047;19;20368;-78
2022/07/31 02:42:25;;;;;;;2.50;2.30;;;12.70;99.90;;;;;;7356635;19;20356;-77
2022/07/31 02:44:51;;;;;;;2.53;2.33;;;12.80;99.90;;;;;;7362668;19;20784;-75
2022/07/31 02:47:17;;;;;;;2.17;1.98;;;12.80;99.90;;;;;;7366251;19;20358;-75
2022/07/31 02:49:44;;;;;;;2.28;2.10;;;12.80;99.90;;;;;;7365591;19;20336;-75
2022/07/31 02:52:09;;;;;;;2.25;2.05;;;12.80;99.90;;;;;;7357884;19;20357;-77
2022/07/31 02:54:38;;;;;;;2.00;1.90;;;12.80;99.90;;;;;;7361042;19;20769;-75
2022/07/31 02:57:03;;;;;;;2.35;2.15;;;12.80;99.90;;;;;;7356469;19;20366;-74
2022/07/31 02:59:29;;;;;;;2.58;2.38;;;12.80;99.90;;;;;;7361784;19;20877;-77
2022/07/31 03:01:58;;;;;;;2.30;2.10;;;12.60;99.90;;;;;;7354717;19;20341;-77
2022/07/31 03:04:25;;;;;;;2.03;1.92;;;12.70;99.90;;;;;;7356784;19;20752;-76
2022/07/31 03:06:52;;;;;;;3.93;2.37;;;12.70;99.90;;;;;;7355862;19;20332;-77
2022/07/31 03:09:18;;;;;;;2.50;2.30;;;12.70;99.90;;;;;;7359907;19;20503;-76
2022/07/31 03:11:45;;;;;;;2.80;2.60;;;12.80;99.90;;;;;;7355169;19;20347;-77
2022/07/31 03:14:11;;;;;;;2.10;2.00;;;12.60;99.90;;;;;;7356019;19;20333;-77
2022/07/31 03:16:36;;;;;;;2.60;2.40;;;12.60;99.90;;;;;;7354124;19;20475;-78
2022/07/31 03:19:02;;;;;;;2.30;2.10;;;12.60;99.90;;;;;;7361551;19;20348;-75
2022/07/31 03:21:29;;;;;;;3.10;2.58;;;12.60;99.90;;;;;;7356771;19;20805;-76
2022/07/31 03:23:54;;;;;;;2.50;2.30;;;12.60;99.90;;;;;;7351118;19;20821;-75
2022/07/31 03:26:21;;;;;;;2.60;2.40;;;12.60;99.90;;;;;;7355211;19;20337;-75
2022/07/31 03:28:47;;;;;;;2.70;2.50;;;12.60;99.90;;;;;;7359087;19;20341;-77
2022/07/31 03:31:13;;;;;;;2.50;2.30;;;12.50;99.90;;;;;;7351569;19;20385;-77
2022/07/31 03:33:39;;;;;;;2.90;2.63;;;12.60;99.90;;;;;;7354435;19;20345;-75
2022/07/31 03:36:05;;;;;;;3.13;2.17;;;12.40;99.90;;;;;;7354668;19;20335;-75
2022/07/31 03:38:30;;;;;;;2.60;2.40;;;12.50;99.90;;;;;;7358092;19;20328;-76
2022/07/31 03:40:58;;;;;;;2.50;2.30;;;12.50;99.90;;;;;;7355841;19;20871;-77
2022/07/31 03:43:24;;;;;;;2.95;2.60;;;12.50;99.90;;;;;;7356575;19;20356;-75
2022/07/31 03:45:50;;;;;;;2.10;2.00;;;12.40;99.90;;;;;;7360579;19;20895;-78
2022/07/31 03:48:16;;;;;;;2.40;2.20;;;12.40;99.90;;;;;;7367806;19;21403;-75
2022/07/31 03:50:42;;;;;;;2.30;2.10;;;12.40;99.90;;;;;;7362032;19;20674;-77
2022/07/31 03:53:08;;;;;;;2.10;2.00;;;12.40;99.90;;;;;;7361926;19;20420;-75
2022/07/31 03:55:37;;;;;;;2.45;2.25;;;12.40;99.90;;;;;;7353493;19;20351;-77
2022/07/31 03:58:02;;;;;;;2.60;2.40;;;12.50;99.90;;;;;;7359226;19;21263;-76
2022/07/31 04:00:28;;;;;;;2.90;2.67;;;12.50;99.90;;;;;;7360588;19;20315;-77
2022/07/31 04:02:55;;;;;;;2.30;2.10;;;12.50;99.90;;;;;;7362056;19;20360;-76
2022/07/31 04:05:37;;;;;;;3.00;2.80;;;12.50;99.90;;;;;;7357941;19;20368;-77
2022/07/31 04:08:04;;;;;;;2.50;2.30;;;12.50;99.90;;;;;;7365035;19;20361;-76
2022/07/31 04:10:30;;;;;;;2.22;2.03;;;12.50;99.90;;;;;;7364048;19;20336;-78
2022/07/31 04:12:56;;;;;;;2.97;2.35;;;12.60;99.90;;;;;;7356998;19;20405;-74
2022/07/31 04:15:23;;;;;;;2.78;2.58;;;12.70;99.90;;;;;;7349539;19;20381;-76
2022/07/31 04:17:48;;;;;;;3.00;2.80;;;12.70;99.90;;;;;;7357572;19;20373;-73
2022/07/31 04:20:20;;;;;;;3.13;2.65;;;12.70;99.90;;;;;;7364820;19;20364;-76
2022/07/31 04:22:47;;;;;;;2.53;2.33;;;12.70;99.90;;;;;;7349816;19;20412;-76
2022/07/31 04:25:21;;;;;;;2.80;2.60;;;13.00;99.90;;;;;;7341670;19;20334;-76
2022/07/31 04:28:07;;;;;;;2.58;2.38;;;13.00;99.90;;;;;;7348759;19;20372;-75
2022/07/31 04:30:32;;;;;;;2.63;2.42;;;13.10;99.90;;;;;;7338887;19;20349;-75
2022/07/31 04:32:58;;;;;;;2.57;2.37;;;13.30;99.90;;;;;;7339508;19;20388;-74
2022/07/31 04:35:24;;;;;;;2.67;2.20;;;13.30;99.90;;;;;;7340077;19;20329;-75
2022/07/31 04:37:50;;;;;;;3.20;2.90;;;13.50;99.90;;;;;;7340305;19;20350;-76
2022/07/31 04:40:17;;;;;;;7.28;5.28;;;13.50;99.90;;;;;;7346050;19;20332;-76
2022/07/31 04:42:43;;;;;;;10.03;6.33;;;13.70;99.90;;;;;;7343526;19;20400;-74
2022/07/31 04:45:09;;;;;;;10.88;8.38;;;13.70;99.90;;;;;;7356172;19;20360;-74
2022/07/31 04:47:35;;;;;;;9.13;7.53;;;13.80;99.90;;;;;;7351905;19;20375;-76
2022/07/31 04:50:01;;;;;;;10.75;8.50;;;13.90;99.90;;;;;;7367462;19;20353;-77
2022/07/31 04:52:27;;;;;;;8.83;7.30;;;14.00;99.90;;;;;;7359320;19;20447;-77
2022/07/31 04:54:55;;;;;;;7.65;6.90;;;14.00;99.90;;;;;;7363543;19;20364;-76
2022/07/31 04:57:21;;;;;;;7.65;6.88;;;14.10;99.90;;;;;;7356792;19;20336;-76
2022/07/31 04:59:46;;;;;;;6.32;5.72;;;14.10;99.90;;;;;;7361391;19;20340;-76
2022/07/31 05:02:12;;;;;;;5.75;5.10;;;14.20;99.90;;;;;;7355312;19;20711;-77
2022/07/31 05:04:38;;;;;;;7.00;6.40;;;14.20;99.90;;;;;;7359542;19;20373;-76
2022/07/31 05:07:04;;;;;;;6.32;5.68;;;14.30;99.90;;;;;;7355281;19;21031;-74
2022/07/31 05:09:32;;;;;;;6.20;5.70;;;14.30;99.90;;;;;;7359560;19;20411;-76
2022/07/31 05:12:00;;;;;;;6.53;5.82;;;14.20;99.90;;;;;;7354385;19;20348;-77
2022/07/31 05:14:26;;;;;;;6.82;6.13;;;14.20;99.90;;;;;;7362268;19;20404;-76
2022/07/31 05:16:52;;;;;;;6.10;5.50;;;14.20;99.90;;;;;;7357065;19;20333;-77
2022/07/31 05:19:18;;;;;;;6.03;5.53;;;14.30;99.90;;;;;;7359394;19;20463;-74
2022/07/31 05:21:56;;;;;;;5.80;5.25;;;14.40;99.90;;;;;;7358388;19;20333;-77
2022/07/31 05:24:29;;;;;;;5.03;4.63;;;14.40;99.90;;;;;;7359665;19;20938;-76
2022/07/31 05:27:13;;;;;;;5.40;4.90;;;14.50;99.90;;;;;;7358873;19;20804;-76
2022/07/31 05:29:41;;;;;;;6.93;6.33;;;14.60;99.90;;;;;;7361606;19;20336;-75
2022/07/31 05:32:06;;;;;;;6.22;5.72;;;14.60;99.90;;;;;;7352800;19;20400;-77
2022/07/31 05:34:33;;;;;;;5.63;5.13;;;14.70;99.90;;;;;;7359842;19;20352;-77
2022/07/31 05:37:02;;;;;;;6.53;5.93;;;14.70;99.90;;;;;;7359130;19;20872;-74
2022/07/31 05:39:30;;;;;;;6.45;5.85;;;14.80;99.90;;;;;;7358597;19;20352;-76
2022/07/31 05:42:14;;;;;;;6.90;6.20;;;14.90;99.90;;;;;;7356559;19;20408;-76
2022/07/31 05:45:01;;;;;;;6.43;5.82;;;14.90;99.90;;;;;;7362280;19;21267;-74
2022/07/31 05:47:27;;;;;;;6.70;6.10;;;15.00;99.90;;;;;;7356363;19;20344;-75
2022/07/31 05:49:53;;;;;;;6.80;6.20;;;15.10;99.90;;;;;;7362765;19;21019;-76
2022/07/31 05:52:19;;;;;;;6.72;6.20;;;15.20;99.90;;;;;;7352901;19;20389;-76
2022/07/31 05:54:55;;;;;;;6.50;5.80;;;15.30;99.90;;;;;;7359318;19;20875;-76
2022/07/31 05:57:39;;;;;;;7.75;7.05;;;15.40;99.90;;;;;;7355804;19;20360;-75
2022/07/31 06:00:05;;;;;;;7.40;6.70;;;15.50;99.90;;;;;;7359134;19;20324;-78
2022/07/31 06:02:37;;;;;;;7.90;7.10;;;15.60;99.90;;;;;;7352376;19;20371;-74
2022/07/31 06:05:16;;;;;;;7.80;7.07;;;15.80;99.90;;;;;;7353609;19;20824;-72
2022/07/31 06:07:43;;;;;;;8.63;6.60;;;15.90;99.90;;;;;;7351591;19;20332;-72
2022/07/31 06:10:09;;;;;;;8.73;7.83;;;16.10;99.90;;;;;;7356313;19;20324;-72
2022/07/31 06:12:34;;;;;;;8.45;7.65;;;16.10;99.90;;;;;;7347652;19;21313;-72
2022/07/31 06:15:00;;;;;;;7.85;7.18;;;16.20;99.90;;;;;;7356801;19;20350;-72
2022/07/31 06:17:31;;;;;;;8.57;7.80;;;16.30;99.90;;;;;;7356590;19;20618;-73
2022/07/31 06:19:57;;;;;;;8.20;7.35;;;16.40;99.90;;;;;;7357187;19;20908;-72
2022/07/31 06:22:23;;;;;;;7.20;6.50;;;16.60;99.90;;;;;;7351905;19;20381;-72
2022/07/31 06:24:48;;;;;;;7.43;6.60;;;16.60;99.90;;;;;;7355852;19;20353;-72
2022/07/31 06:27:16;;;;;;;7.32;6.63;;;16.70;99.90;;;;;;7353149;19;21204;-70
2022/07/31 06:29:41;;;;;;;7.55;6.80;;;16.80;99.90;;;;;;7357718;19;20320;-70
2022/07/31 06:32:07;;;;;;;7.13;6.43;;;16.90;99.90;;;;;;7349826;19;20383;-70
2022/07/31 06:34:33;;;;;;;6.28;5.78;;;17.00;99.90;;;;;;7353276;19;20426;-70
2022/07/31 06:36:59;;;;;;;7.27;6.67;;;17.20;99.90;;;;;;7352168;19;20364;-70
2022/07/31 06:39:25;;;;;;;6.30;5.72;;;17.30;99.90;;;;;;7356506;19;20350;-70
2022/07/31 06:42:09;;;;;;;5.57;5.07;;;17.40;99.90;;;;;;7349392;19;20386;-70
2022/07/31 06:44:35;;;;;;;6.68;6.07;;;17.70;99.90;;;;;;7358122;19;20807;-71
2022/07/31 06:47:21;;;;;;;6.78;6.07;;;17.90;99.90;;;;;;7355842;19;20347;-70
2022/07/31 06:49:58;;;;;;;7.65;6.95;;;17.90;99.90;;;;;;7354328;19;20385;-70
2022/07/31 06:52:26;;;;;;;6.15;5.60;;;18.00;99.90;;;;;;7350605;19;20368;-70
2022/07/31 06:54:52;;;;;;;6.38;5.80;;;18.20;99.90;;;;;;7359390;19;20360;-70
2022/07/31 06:57:18;;;;;;;6.87;6.27;;;18.20;99.90;;;;;;7356732;19;21187;-70
2022/07/31 06:59:44;;;;;;;5.43;5.03;;;18.40;99.90;;;;;;7358089;19;20579;-70
2022/07/31 07:02:10;;;;;;;5.82;5.32;;;18.50;99.90;;;;;;7352929;19;20393;-68
2022/07/31 07:04:36;;;;;;;6.33;5.83;;;18.70;99.90;;;;;;7353365;19;20360;-69
2022/07/31 07:07:02;;;;;;;6.43;5.82;;;18.90;99.90;;;;;;7351906;19;20348;-69
2022/07/31 07:09:28;;;;;;;5.35;4.88;;;19.00;99.90;;;;;;7357111;19;20369;-69
2022/07/31 07:11:54;;;;;;;5.22;4.72;;;19.10;99.90;;;;;;7353062;19;20329;-70
2022/07/31 07:14:20;;;;;;;5.72;5.13;;;19.30;99.90;;;;;;7353607;19;20348;-70
2022/07/31 07:16:46;;;;;;;5.03;4.47;;;19.50;99.90;;;;;;7352503;19;20348;-68
2022/07/31 07:19:12;;;;;;;5.03;4.53;;;19.70;99.90;;;;;;7354070;19;20368;-70
2022/07/31 07:21:37;;;;;;;5.83;5.23;;;20.00;99.90;;;;;;7355549;19;20340;-70
2022/07/31 07:24:04;;;;;;;4.72;4.32;;;20.10;99.90;;;;;;7350051;19;20416;-70
2022/07/31 07:26:35;;;;;;;6.03;5.43;;;20.20;99.90;;;;;;7351369;19;20805;-70
2022/07/31 07:29:01;;;;;;;4.75;4.32;;;20.20;99.90;;;;;;7355828;19;20352;-70
2022/07/31 07:31:28;;;;;;;5.90;4.80;;;20.40;99.90;;;;;;7347833;19;20356;-71
2022/07/31 07:33:55;;;;;;;5.43;4.93;;;20.60;99.90;;;;;;7347535;19;20360;-71
2022/07/31 07:36:22;;;;;;;4.07;3.67;;;20.80;99.90;;;;;;7351826;19;20724;-73
2022/07/31 07:38:48;;;;;;;4.20;3.90;;;20.90;99.90;;;;;;7355207;19;20340;-70
2022/07/31 07:41:14;;;;;;;4.93;4.43;;;21.20;99.90;;;;;;7350837;19;21077;-70
2022/07/31 07:43:39;;;;;;;4.77;3.93;;;21.40;99.90;;;;;;7349969;19;20361;-71
2022/07/31 07:46:05;;;;;;;4.10;3.70;;;21.70;99.90;;;;;;7349289;19;20344;-71
2022/07/31 07:48:30;;;;;;;4.30;3.90;;;21.90;99.90;;;;;;7346863;19;20363;-71
2022/07/31 07:51:31;;;;;;;5.85;3.90;;;22.00;99.90;;;;;;7343093;19;20344;-71
2022/07/31 07:54:01;;;;;;;3.97;3.63;;;22.20;99.90;;;;;;7346121;19;20348;-70
2022/07/31 07:56:32;;;;;;;6.10;3.70;;;22.30;99.90;;;;;;7355575;19;20436;-70
2022/07/31 07:59:16;;;;;;;4.03;3.63;;;22.20;99.90;;;;;;7352251;19;20750;-70
2022/07/31 08:04:22;;;;;;;3.17;2.97;;;22.80;99.90;;;;;;7361634;19;20722;-77
2022/07/31 08:06:47;;;;;;;4.03;3.72;;;23.00;99.90;;;;;;7369804;19;20333;-76
2022/07/31 08:09:14;;;;;;;7.53;4.00;;;23.10;99.90;;;;;;7364137;19;20375;-75
2022/07/31 08:11:59;;;;;;;3.40;3.05;;;23.20;99.90;;;;;;7355772;19;20393;-77
2022/07/31 08:14:47;;;;;;;5.05;3.58;;;23.50;99.90;;;;;;7368129;19;20321;-76
2022/07/31 08:17:31;;;;;;;5.35;3.40;;;23.60;99.90;;;;;;7370316;19;20339;-77
2022/07/31 08:19:57;;;;;;;3.30;3.00;;;23.50;99.90;;;;;;7368022;19;20348;-76
2022/07/31 08:22:23;;;;;;;4.10;3.17;;;23.90;99.90;;;;;;7366362;19;21012;-76
2022/07/31 08:24:48;;;;;;;4.32;3.42;;;23.90;99.90;;;;;;7369491;19;20358;-75
2022/07/31 08:27:23;;;;;;;2.95;2.75;;;24.10;99.90;;;;;;7366121;19;20352;-77
2022/07/31 08:29:52;;;;;;;3.60;3.30;;;24.30;99.90;;;;;;7372443;19;20361;-77
2022/07/31 08:32:19;;;;;;;3.08;2.88;;;24.50;99.90;;;;;;7371677;19;20366;-75
2022/07/31 08:35:03;;;;;;;4.30;3.60;;;24.70;99.90;;;;;;7376694;19;20447;-76
2022/07/31 08:37:29;;;;;;;3.53;3.22;;;24.80;99.90;;;;;;7375870;19;20417;-76
2022/07/31 08:39:55;;;;;;;4.35;3.10;;;24.90;99.90;;;;;;7379010;19;20923;-76
2022/07/31 08:42:21;;;;;;;5.40;3.40;;;25.10;99.90;;;;;;7371164;19;20785;-75
2022/07/31 08:44:47;;;;;;;3.97;3.60;;;25.10;99.90;;;;;;7377761;19;20383;-77
2022/07/31 08:47:16;;;;;;;4.70;3.20;;;25.10;99.90;;;;;;7375054;19;20461;-76
2022/07/31 08:49:42;;;;;;;3.63;3.20;;;25.00;99.90;;;;;;7378072;19;21051;-77
2022/07/31 08:52:09;;;;;;;3.75;3.45;;;25.20;99.90;;;;;;7376231;19;20376;-77
2022/07/31 08:54:50;;;;;;;3.45;3.15;;;25.40;99.90;;;;;;7382889;19;20361;-76
2022/07/31 08:57:16;;;;;;;3.47;3.20;;;25.70;99.90;;;;;;7390314;19;20347;-77
2022/07/31 08:59:41;;;;;;;5.33;3.03;;;26.10;99.90;;;;;;7379569;19;20353;-77
2022/07/31 09:02:08;;;;;;;3.65;3.15;;;26.20;99.90;;;;;;7372466;19;20357;-77
2022/07/31 09:04:37;;;;;;;3.30;3.00;;;26.30;99.90;;;;;;7374779;19;20441;-76
2022/07/31 09:07:03;;;;;;;2.83;2.63;;;26.50;99.90;;;;;;7375815;19;20779;-76
2022/07/31 09:12:57;;;;;;;3.10;2.90;;;26.90;99.90;;;;;;7362414;19;20373;-77
2022/07/31 09:15:27;;;;;;;3.55;3.25;;;27.10;99.90;;;;;;7375249;19;20497;-75
2022/07/31 09:17:53;;;;;;;3.10;2.90;;;27.10;99.90;;;;;;7374406;19;20389;-76
2022/07/31 09:20:21;;;;;;;3.57;3.27;;;27.30;99.90;;;;;;7369344;19;20396;-76
2022/07/31 09:22:47;;;;;;;4.15;2.80;;;27.10;99.90;;;;;;7369021;19;20456;-76
2022/07/31 09:25:18;;;;;;;3.22;2.80;;;27.20;99.90;;;;;;7371621;19;20344;-76
2022/07/31 09:27:45;;;;;;;3.72;3.00;;;27.40;99.90;;;;;;7372809;19;20365;-76
2022/07/31 09:30:11;;;;;;;2.90;2.60;;;27.50;99.90;;;;;;7371081;19;20352;-75
2022/07/31 09:32:56;;;;;;;2.63;2.43;;;27.70;99.90;;;;;;7374828;19;20940;-77
2022/07/31 09:35:48;;;;;;;2.90;2.70;;;27.90;99.90;;;;;;7373040;19;20355;-77
2022/07/31 09:38:15;;;;;;;2.70;2.50;;;28.00;99.90;;;;;;7371837;19;20361;-76
2022/07/31 09:41:12;;;;;;;3.78;2.88;;;28.30;99.90;;;;;;7374205;19;20397;-77
2022/07/31 09:43:59;;;;;;;3.05;2.70;;;28.20;99.90;;;;;;7367743;19;20369;-76
2022/07/31 09:46:26;;;;;;;2.42;2.22;;;27.80;99.90;;;;;;7373127;19;20375;-77
2022/07/31 09:48:54;;;;;;;2.90;2.20;;;28.10;99.90;;;;;;7373425;19;20351;-76
2022/07/31 09:51:20;;;;;;;2.17;2.07;;;28.80;99.90;;;;;;7370614;19;21232;-76
2022/07/31 09:53:50;;;;;;;2.50;2.30;;;29.20;99.90;;;;;;7374749;19;20352;-76
2022/07/31 09:56:34;;;;;;;4.82;2.58;;;29.50;99.90;;;;;;7376006;19;20353;-75
2022/07/31 09:59:01;;;;;;;2.20;2.10;;;29.80;98.20;;;;;;7373270;19;20348;-76
2022/07/31 10:01:27;;;;;;;2.13;2.03;;;29.50;96.60;;;;;;7374308;19;20344;-76
2022/07/31 10:03:53;;;;;;;2.22;2.13;;;29.50;97.90;;;;;;7370717;19;20385;-76
2022/07/31 10:06:19;;;;;;;2.67;2.30;;;29.70;97.90;;;;;;7375047;19;20357;-76
2022/07/31 10:08:45;;;;;;;1.73;1.63;;;30.00;95.40;;;;;;7373765;19;20380;-76
2022/07/31 10:11:30;;;;;;;4.05;2.13;;;30.30;94.90;;;;;;7370216;19;20390;-76
2022/07/31 10:14:11;;;;;;;8.18;7.30;;;30.60;92.50;;;;;;7371549;19;20360;-76
2022/07/31 10:16:38;;;;;;;3.88;3.55;;;30.60;91.10;;;;;;7376077;19;20359;-75
2022/07/31 10:19:22;;;;;;;2.85;2.20;;;30.90;91.10;;;;;;7374932;19;20649;-76
2022/07/31 10:22:19;;;;;;;5.85;2.30;;;30.10;90.80;;;;;;7371550;19;20376;-77
2022/07/31 10:24:48;;;;;;;2.40;2.20;;;29.50;90.40;;;;;;7372566;19;20380;-77
2022/07/31 10:27:15;;;;;;;2.13;2.03;;;29.30;90.80;;;;;;7374030;19;20336;-77
2022/07/31 10:29:41;;;;;;;2.45;2.25;;;29.70;91.10;;;;;;7375085;19;20352;-78
2022/07/31 10:32:08;;;;;;;2.50;2.30;;;30.00;91.00;;;;;;7372351;19;20365;-77
2022/07/31 10:34:37;;;;;;;3.03;2.00;;;30.20;87.50;;;;;;7374757;19;20395;-77
2022/07/31 10:37:23;;;;;;;3.20;2.13;;;30.40;86.90;;;;;;7375496;19;20357;-77
2022/07/31 10:40:23;;;;;;;4.63;2.10;;;31.00;84.30;;;;;;7376342;19;21195;-76
2022/07/31 10:43:24;;;;;;;2.10;2.00;;;31.10;81.40;;;;;;7371034;19;20416;-77
2022/07/31 10:46:29;;;;;;;2.38;2.17;;;31.20;78.40;;;;;;7375672;19;20341;-75
2022/07/31 10:49:38;;;;;;;2.90;2.60;;;31.60;82.50;;;;;;7373937;19;20352;-78
2022/07/31 10:52:30;;;;;;;2.35;2.15;;;30.70;80.70;;;;;;7372632;19;20365;-77
2022/07/31 10:55:24;;;;;;;2.08;1.98;;;31.10;82.00;;;;;;7375491;19;20337;-77
2022/07/31 10:58:14;;;;;;;2.20;2.00;;;31.50;81.60;;;;;;7372503;19;20353;-78
2022/07/31 11:00:51;;;;;;;1.87;1.77;;;31.50;78.30;;;;;;7374758;19;20455;-77
2022/07/31 11:03:20;;;;;;;2.60;2.10;;;32.10;78.10;;;;;;7374904;19;20344;-77
2022/07/31 11:06:05;;;;;;;1.90;1.80;;;32.50;74.80;;;;;;7380083;19;20381;-78
2022/07/31 11:08:53;;;;;;;2.20;1.98;;;32.90;70.00;;;;;;7374390;19;20390;-78
2022/07/31 11:11:41;;;;;;;2.30;2.10;;;33.30;72.80;;;;;;7374439;19;20378;-78
2022/07/31 11:14:37;;;;;;;2.47;2.28;;;32.60;71.10;;;;;;7374587;19;20365;-77
2022/07/31 11:17:32;;;;;;;4.60;2.08;;;32.70;72.80;;;;;;7378061;19;20374;-77
2022/07/31 11:20:28;;;;;;;4.20;2.30;;;32.80;70.50;;;;;;7372648;19;20328;-78
2022/07/31 11:23:02;;;;;;;1.83;1.73;;;32.90;68.50;;;;;;7374721;19;20353;-78
2022/07/31 11:25:28;;;;;;;2.38;2.17;;;33.10;69.20;;;;;;7375889;19;20365;-78
2022/07/31 11:27:55;;;;;;;2.30;2.03;;;33.40;68.70;;;;;;7376509;19;21030;-78
2022/07/31 11:30:21;;;;;;;4.07;2.10;;;33.30;64.00;;;;;;7377004;19;20348;-77
2022/07/31 11:32:51;;;;;;;2.80;2.10;;;32.70;67.60;;;;;;7376713;19;20397;-78
2022/07/31 11:35:29;;;;;;;2.30;2.10;;;32.30;67.10;;;;;;7376353;19;20907;-78
2022/07/31 11:37:57;;;;;;;1.92;1.83;;;32.10;69.10;;;;;;7376812;19;20363;-78
2022/07/31 11:40:23;;;;;;;1.73;1.63;;;32.60;67.90;;;;;;7373150;19;20365;-78
2022/07/31 11:42:49;;;;;;;2.08;1.88;;;33.10;64.80;;;;;;7374093;19;20397;-78
2022/07/31 11:45:15;;;;;;;1.90;1.80;;;34.00;66.30;;;;;;7373598;19;20390;-77
2022/07/31 11:47:42;;;;;;;2.00;1.90;;;33.90;62.20;;;;;;7376084;19;20753;-77
2022/07/31 11:50:09;;;;;;;2.25;1.85;;;33.60;61.80;;;;;;7373099;19;20969;-77
2022/07/31 11:52:35;;;;;;;2.15;1.95;;;33.50;62.20;;;;;;7372486;19;20886;-78
2022/07/31 11:55:07;;;;;;;2.05;1.90;;;33.60;60.80;;;;;;7374100;19;20368;-78
2022/07/31 11:57:33;;;;;;;1.80;1.70;;;33.80;61.10;;;;;;7376213;19;20360;-78
2022/07/31 12:00:11;;;;;;;1.85;1.75;;;34.40;62.10;;;;;;7372493;19;20367;-77
2022/07/31 12:02:44;;;;;;;1.80;1.70;;;34.30;58.90;;;;;;7370883;19;20356;-77
2022/07/31 12:05:12;;;;;;;2.30;2.00;;;34.20;62.40;;;;;;7374732;19;20994;-77
2022/07/31 12:07:39;;;;;;;1.95;1.80;;;34.20;58.40;;;;;;7380835;19;20381;-77
2022/07/31 12:10:05;;;;;;;2.60;1.97;;;33.90;58.60;;;;;;7379993;19;20368;-77
2022/07/31 12:12:31;;;;;;;2.15;1.75;;;32.80;59.40;;;;;;7377770;19;20401;-78
2022/07/31 12:14:56;;;;;;;4.23;2.00;;;32.30;61.40;;;;;;7381438;19;20332;-77
2022/07/31 12:17:22;;;;;;;1.97;1.83;;;31.70;60.30;;;;;;7384284;19;20336;-77
2022/07/31 12:19:48;;;;;;;2.43;2.17;;;31.80;63.30;;;;;;7380943;19;20381;-77
2022/07/31 12:22:18;;;;;;;2.43;1.93;;;31.60;60.20;;;;;;7381129;19;20364;-77
2022/07/31 12:24:43;;;;;;;2.10;1.90;;;31.40;63.70;;;;;;7376241;19;20359;-77
2022/07/31 12:27:16;;;;;;;2.42;1.90;;;32.10;63.70;;;;;;7381326;19;20497;-78
2022/07/31 12:29:41;;;;;;;6.88;6.20;;;32.70;62.20;;;;;;7383173;19;20962;-78
2022/07/31 12:32:07;;;;;;;4.30;2.20;;;33.10;64.50;;;;;;7380169;19;20352;-78
2022/07/31 12:34:35;;;;;;;2.00;1.90;;;34.00;64.50;;;;;;7379489;19;20356;-78
2022/07/31 12:37:02;;;;;;;2.13;1.95;;;34.00;59.70;;;;;;7379958;19;21215;-78
2022/07/31 12:39:28;;;;;;;2.13;1.92;;;34.30;60.80;;;;;;7377197;19;20506;-78
2022/07/31 12:41:53;;;;;;;1.80;1.70;;;34.30;59.80;;;;;;7376804;19;20376;-78
2022/07/31 12:44:19;;;;;;;1.90;1.80;;;34.20;59.60;;;;;;7375396;19;20334;-77
2022/07/31 12:46:45;;;;;;;2.03;1.92;;;34.00;59.70;;;;;;7380194;19;20907;-77
2022/07/31 12:49:10;;;;;;;1.70;1.60;;;32.90;59.20;;;;;;7377922;19;20332;-78
2022/07/31 12:51:36;;;;;;;1.90;1.80;;;32.60;59.70;;;;;;7376031;19;20360;-77
2022/07/31 12:54:03;;;;;;;1.70;1.60;;;31.80;58.70;;;;;;7376164;19;20352;-77
2022/07/31 12:56:32;;;;;;;1.90;1.80;;;31.70;60.50;;;;;;7380714;19;20370;-77
2022/07/31 12:59:00;;;;;;;1.60;1.50;;;31.80;63.00;;;;;;7376782;19;20341;-78
2022/07/31 13:01:27;;;;;;;2.17;1.80;;;31.90;62.80;;;;;;7374518;19;20385;-77
2022/07/31 13:03:54;;;;;;;2.00;1.90;;;31.90;62.50;;;;;;7375376;19;20376;-76
2022/07/31 13:06:20;;;;;;;1.90;1.80;;;32.00;61.90;;;;;;7380585;19;20356;-77